Time;durP1;ratioP1;P1;durP2;ratioP2;P2;SDS_P1;SDS_P2;PMS_P1;PMS_P2;Temp;Humidity;BMP_temperature;BMP_pressure;BME280_temperature;BME280_humidity;BME280_pressure;Samples;Min_cycle;Max_cycle;Signal;HPM_P1;HPM_P2
2021/07/10 00:01:04;;;;;;;34.30;20.20;;;16.70;99.90;;;;;;5062142;28;20211;-66
2021/07/10 00:03:34;;;;;;;34.63;20.77;;;16.70;99.90;;;;;;5065983;28;20200;-66
2021/07/10 00:06:02;;;;;;;31.07;19.40;;;16.60;99.90;;;;;;5067580;28;20247;-66
2021/07/10 00:08:31;;;;;;;32.87;18.77;;;16.60;99.90;;;;;;5067514;28;20718;-66
2021/07/10 00:10:59;;;;;;;37.97;21.03;;;16.60;99.90;;;;;;5062233;28;20258;-67
2021/07/10 00:13:28;;;;;;;34.03;20.07;;;16.50;99.90;;;;;;5065737;28;20616;-67
2021/07/10 00:15:59;;;;;;;30.63;18.10;;;16.50;99.90;;;;;;5063210;28;20675;-67
2021/07/10 00:18:27;;;;;;;30.83;19.03;;;16.40;99.90;;;;;;5064242;28;20188;-66
2021/07/10 00:20:57;;;;;;;27.30;17.57;;;16.30;99.90;;;;;;5067696;28;20227;-67
2021/07/10 00:23:26;;;;;;;24.40;16.00;;;16.30;99.90;;;;;;5068014;28;20279;-66
2021/07/10 00:25:54;;;;;;;28.20;16.67;;;16.20;99.90;;;;;;5068700;28;20295;-66
2021/07/10 00:28:22;;;;;;;25.03;16.50;;;16.20;99.90;;;;;;5063101;28;20318;-66
2021/07/10 00:30:51;;;;;;;29.90;18.67;;;16.10;99.90;;;;;;5056997;28;20209;-66
2021/07/10 00:33:19;;;;;;;25.80;16.00;;;16.10;99.90;;;;;;5064356;28;20754;-66
2021/07/10 00:35:48;;;;;;;25.00;16.27;;;16.00;99.90;;;;;;5067806;28;20197;-66
2021/07/10 00:38:18;;;;;;;22.83;14.67;;;16.00;99.90;;;;;;5067917;28;20280;-66
2021/07/10 00:40:46;;;;;;;24.37;15.13;;;16.00;99.90;;;;;;5065691;28;20275;-66
2021/07/10 00:43:14;;;;;;;21.37;14.47;;;15.90;99.90;;;;;;5056638;28;20192;-66
2021/07/10 00:45:43;;;;;;;19.93;13.97;;;15.90;99.90;;;;;;5067098;28;20684;-66
2021/07/10 00:48:11;;;;;;;25.83;17.50;;;15.80;99.90;;;;;;5064588;28;20204;-67
2021/07/10 00:50:40;;;;;;;29.20;17.20;;;15.80;99.90;;;;;;5067149;28;20781;-66
2021/07/10 00:53:08;;;;;;;32.07;17.37;;;15.80;99.90;;;;;;5063977;28;20219;-66
2021/07/10 00:55:38;;;;;;;26.20;17.07;;;15.70;99.90;;;;;;5058265;28;20276;-66
2021/07/10 00:58:07;;;;;;;24.43;16.30;;;15.70;99.90;;;;;;5061306;28;20446;-66
2021/07/10 01:00:35;;;;;;;29.00;17.23;;;15.70;99.90;;;;;;5064315;28;20254;-66
2021/07/10 01:03:04;;;;;;;32.40;17.03;;;15.60;99.90;;;;;;5065965;28;20220;-66
2021/07/10 01:05:34;;;;;;;24.87;16.13;;;15.60;99.90;;;;;;5066877;28;20219;-66
2021/07/10 01:08:02;;;;;;;25.93;16.77;;;15.50;99.90;;;;;;5060887;28;20242;-66
2021/07/10 01:10:31;;;;;;;25.47;16.23;;;15.40;99.90;;;;;;5063772;28;20220;-67
2021/07/10 01:13:04;;;;;;;15.83;11.23;;;15.40;99.90;;;;;;5061965;28;20605;-66
2021/07/10 01:15:32;;;;;;;18.63;11.80;;;15.40;99.90;;;;;;5067832;28;20287;-66
2021/07/10 01:18:01;;;;;;;24.30;13.73;;;15.40;99.90;;;;;;5062264;28;20222;-66
2021/07/10 01:20:29;;;;;;;17.20;12.20;;;15.40;99.90;;;;;;5066590;28;20192;-66
2021/07/10 01:22:59;;;;;;;12.80;10.63;;;15.40;99.90;;;;;;5062866;28;20220;-66
2021/07/10 01:25:28;;;;;;;27.37;13.40;;;15.40;99.90;;;;;;5068952;28;20273;-66
2021/07/10 01:27:57;;;;;;;19.73;14.27;;;15.30;99.90;;;;;;5062189;28;20767;-67
2021/07/10 01:30:27;;;;;;;18.23;11.77;;;15.30;99.90;;;;;;5065318;28;20218;-66
2021/07/10 01:32:56;;;;;;;17.97;11.80;;;15.30;99.90;;;;;;5059528;28;20235;-66
2021/07/10 01:35:25;;;;;;;18.00;12.43;;;15.30;99.90;;;;;;5066457;28;20245;-66
2021/07/10 01:37:54;;;;;;;18.03;12.70;;;15.20;99.90;;;;;;5068610;28;20220;-66
2021/07/10 01:40:25;;;;;;;15.70;12.20;;;15.20;99.90;;;;;;5065488;28;20679;-66
2021/07/10 01:42:54;;;;;;;14.73;11.93;;;15.20;99.90;;;;;;5061908;28;20224;-66
2021/07/10 01:45:22;;;;;;;15.43;11.10;;;15.10;99.90;;;;;;5064033;28;20217;-66
2021/07/10 01:47:52;;;;;;;16.77;12.07;;;15.10;99.90;;;;;;5066136;28;20224;-66
2021/07/10 01:50:21;;;;;;;17.40;12.67;;;15.10;99.90;;;;;;5070219;28;20241;-66
2021/07/10 01:52:49;;;;;;;17.60;12.03;;;15.00;99.90;;;;;;5065338;28;20273;-66
2021/07/10 01:55:19;;;;;;;21.93;15.07;;;15.00;99.90;;;;;;5062296;28;20200;-66
2021/07/10 01:57:53;;;;;;;23.57;15.40;;;15.00;99.90;;;;;;5069241;28;20218;-66
2021/07/10 02:00:23;;;;;;;23.87;15.17;;;14.90;99.90;;;;;;5064896;28;20219;-66
2021/07/10 02:02:52;;;;;;;21.37;15.03;;;14.90;99.90;;;;;;5066770;28;20687;-66
2021/07/10 02:05:22;;;;;;;25.67;15.93;;;14.90;99.90;;;;;;5060574;28;20191;-66
2021/07/10 02:07:51;;;;;;;23.33;14.40;;;14.90;99.90;;;;;;5066846;28;20559;-66
2021/07/10 02:10:22;;;;;;;24.80;15.70;;;14.80;99.90;;;;;;5042701;28;20271;-66
2021/07/10 02:12:54;;;;;;;24.17;15.13;;;14.80;99.90;;;;;;5066305;28;20707;-66
2021/07/10 02:15:23;;;;;;;25.90;16.13;;;14.80;99.90;;;;;;5058781;28;20243;-66
2021/07/10 02:17:51;;;;;;;24.57;15.13;;;14.80;99.90;;;;;;5067929;28;20192;-66
2021/07/10 02:20:22;;;;;;;29.27;17.00;;;14.80;99.90;;;;;;5063837;28;20303;-66
2021/07/10 02:22:51;;;;;;;32.23;18.07;;;14.80;99.90;;;;;;5060697;28;20227;-66
2021/07/10 02:25:21;;;;;;;26.17;16.17;;;14.80;99.90;;;;;;5062159;28;20196;-67
2021/07/10 02:27:52;;;;;;;29.90;16.43;;;14.80;99.90;;;;;;5065250;28;20188;-66
2021/07/10 02:30:24;;;;;;;22.90;14.57;;;14.70;99.90;;;;;;5065256;28;20216;-66
2021/07/10 02:32:52;;;;;;;23.13;15.60;;;14.70;99.90;;;;;;5063364;28;20688;-66
2021/07/10 02:35:20;;;;;;;25.20;15.43;;;14.70;99.90;;;;;;5066618;28;20755;-66
2021/07/10 02:37:50;;;;;;;21.03;13.50;;;14.70;99.90;;;;;;5068212;28;20257;-67
2021/07/10 02:40:19;;;;;;;22.23;14.37;;;14.70;99.90;;;;;;5069419;28;20559;-67
2021/07/10 02:42:49;;;;;;;18.07;10.90;;;14.70;99.90;;;;;;5072069;28;20233;-66
2021/07/10 02:45:20;;;;;;;13.27;10.00;;;14.60;99.90;;;;;;5068464;28;20671;-67
2021/07/10 02:47:49;;;;;;;15.50;10.50;;;14.60;99.90;;;;;;5069159;28;20222;-66
2021/07/10 02:50:19;;;;;;;11.80;9.77;;;14.60;99.90;;;;;;5065974;28;20268;-66
2021/07/10 02:52:48;;;;;;;20.53;13.00;;;14.60;99.90;;;;;;5058650;28;20233;-67
2021/07/10 02:55:17;;;;;;;14.20;11.13;;;14.60;99.90;;;;;;5067869;28;20673;-66
2021/07/10 02:57:45;;;;;;;17.93;13.00;;;14.60;99.90;;;;;;5067444;28;20548;-66
2021/07/10 03:00:18;;;;;;;15.33;12.30;;;14.60;99.90;;;;;;5069476;28;20275;-66
2021/07/10 03:02:48;;;;;;;17.13;12.20;;;14.70;99.90;;;;;;5060955;28;20671;-66
2021/07/10 03:05:17;;;;;;;14.73;11.43;;;14.80;99.90;;;;;;5070953;28;20192;-66
2021/07/10 03:07:46;;;;;;;16.53;12.60;;;14.70;99.90;;;;;;5064143;28;20200;-66
2021/07/10 03:10:18;;;;;;;16.17;11.70;;;14.80;99.90;;;;;;5070215;28;20289;-67
2021/07/10 03:12:47;;;;;;;14.73;11.90;;;14.70;99.90;;;;;;5069348;28;20294;-66
2021/07/10 03:15:17;;;;;;;20.03;14.37;;;14.70;99.90;;;;;;5069032;28;20709;-67
2021/07/10 03:17:49;;;;;;;21.60;14.77;;;14.70;99.90;;;;;;5068148;28;20617;-66
2021/07/10 03:20:20;;;;;;;21.07;13.73;;;14.70;99.90;;;;;;5070398;28;20196;-66
2021/07/10 03:22:49;;;;;;;22.73;14.73;;;14.70;99.90;;;;;;5080847;28;20236;-66
2021/07/10 03:25:18;;;;;;;22.27;14.27;;;14.70;99.90;;;;;;5065876;28;20613;-66
2021/07/10 03:27:48;;;;;;;21.40;13.77;;;14.70;99.90;;;;;;5067312;28;20234;-67
2021/07/10 03:30:19;;;;;;;19.30;12.97;;;14.70;99.90;;;;;;5066906;28;20266;-66
2021/07/10 03:32:49;;;;;;;20.60;13.37;;;14.70;99.90;;;;;;5066139;28;20323;-67
2021/07/10 03:35:19;;;;;;;26.30;16.60;;;14.70;99.90;;;;;;5061324;28;20239;-66
2021/07/10 03:37:50;;;;;;;29.70;14.70;;;14.70;99.90;;;;;;5067124;28;20659;-66
2021/07/10 03:40:21;;;;;;;24.80;14.03;;;14.70;99.90;;;;;;5066111;28;20498;-67
2021/07/10 03:42:53;;;;;;;21.47;14.53;;;14.70;99.90;;;;;;5068727;28;20180;-67
2021/07/10 03:45:22;;;;;;;24.47;14.50;;;14.70;99.90;;;;;;5065207;28;20287;-66
2021/07/10 03:47:51;;;;;;;22.23;14.97;;;14.80;99.90;;;;;;5064152;28;20188;-67
2021/07/10 03:50:21;;;;;;;28.17;16.27;;;14.80;99.90;;;;;;5067133;28;20204;-66
2021/07/10 03:52:50;;;;;;;28.53;17.03;;;14.80;99.90;;;;;;5064571;28;20216;-66
2021/07/10 03:55:19;;;;;;;24.03;15.47;;;14.90;99.90;;;;;;5068396;28;20215;-66
2021/07/10 03:57:48;;;;;;;26.77;16.67;;;14.90;99.90;;;;;;5055502;28;20188;-67
2021/07/10 04:00:41;;;;;;;30.60;17.97;;;14.90;99.90;;;;;;5062244;28;20563;-66
2021/07/10 04:03:11;;;;;;;31.03;17.30;;;15.00;99.90;;;;;;5068713;28;20200;-66
2021/07/10 04:05:39;;;;;;;28.50;17.17;;;15.00;99.90;;;;;;5070014;28;20200;-66
2021/07/10 04:08:08;;;;;;;32.17;18.67;;;15.00;99.90;;;;;;5069386;28;20267;-66
2021/07/10 04:10:36;;;;;;;33.23;18.47;;;15.00;99.90;;;;;;5066677;28;20201;-67
2021/07/10 04:13:11;;;;;;;32.33;18.67;;;15.00;99.90;;;;;;5066219;28;20219;-66
2021/07/10 04:15:39;;;;;;;34.47;19.73;;;15.10;99.90;;;;;;5067318;28;20211;-66
2021/07/10 04:18:08;;;;;;;39.17;21.83;;;15.10;99.90;;;;;;5067141;28;20193;-66
2021/07/10 04:20:38;;;;;;;33.93;18.40;;;15.10;99.90;;;;;;5065839;28;20709;-66
2021/07/10 04:23:07;;;;;;;39.63;21.13;;;15.10;99.90;;;;;;5066638;28;20193;-66
2021/07/10 04:25:36;;;;;;;32.13;18.70;;;15.10;99.90;;;;;;5068019;28;20631;-67
2021/07/10 04:28:05;;;;;;;32.97;18.73;;;15.20;99.90;;;;;;5062333;28;20245;-66
2021/07/10 04:30:33;;;;;;;28.53;17.37;;;15.20;99.90;;;;;;5067652;28;21134;-66
2021/07/10 04:33:01;;;;;;;35.13;19.23;;;15.20;99.90;;;;;;5065540;28;20282;-66
2021/07/10 04:35:30;;;;;;;34.07;18.97;;;15.30;99.90;;;;;;5068660;28;20254;-66
2021/07/10 04:38:00;;;;;;;28.80;17.97;;;15.40;99.90;;;;;;5067702;28;20241;-66
2021/07/10 04:40:28;;;;;;;30.90;17.90;;;15.50;99.90;;;;;;5067743;28;20196;-67
2021/07/10 04:42:57;;;;;;;35.03;19.67;;;15.40;99.90;;;;;;5049021;28;20206;-66
2021/07/10 04:45:25;;;;;;;29.43;18.37;;;15.30;99.90;;;;;;5067904;28;20207;-67
2021/07/10 04:47:53;;;;;;;31.67;17.30;;;15.30;99.90;;;;;;5065969;28;20214;-66
2021/07/10 04:50:22;;;;;;;32.10;18.47;;;15.40;99.90;;;;;;5064666;28;20221;-67
2021/07/10 04:52:51;;;;;;;30.90;17.10;;;15.40;99.90;;;;;;5063685;28;20319;-67
2021/07/10 04:55:21;;;;;;;36.00;19.27;;;15.50;99.90;;;;;;5066089;28;20231;-69
2021/07/10 04:57:50;;;;;;;29.77;18.40;;;15.50;99.90;;;;;;5061556;28;20215;-69
2021/07/10 05:00:19;;;;;;;28.00;16.40;;;15.60;99.90;;;;;;5054130;28;20204;-69
2021/07/10 05:02:48;;;;;;;32.23;18.80;;;15.60;99.90;;;;;;5063250;28;20654;-70
2021/07/10 05:05:17;;;;;;;31.73;18.40;;;15.70;99.90;;;;;;5064754;28;20745;-70
2021/07/10 05:07:48;;;;;;;31.27;17.67;;;15.90;99.90;;;;;;5066511;28;20281;-69
2021/07/10 05:10:17;;;;;;;31.77;19.07;;;15.90;99.90;;;;;;5066355;28;20287;-69
2021/07/10 05:12:47;;;;;;;26.57;17.03;;;16.00;99.90;;;;;;5064593;28;20267;-69
2021/07/10 05:15:17;;;;;;;32.53;18.50;;;16.10;99.90;;;;;;5063804;28;20193;-69
2021/07/10 05:17:45;;;;;;;27.23;17.27;;;16.20;99.90;;;;;;5066306;28;20244;-70
2021/07/10 05:20:14;;;;;;;31.43;19.30;;;16.20;99.90;;;;;;5065601;28;20185;-69
2021/07/10 05:22:43;;;;;;;27.37;18.00;;;16.20;99.90;;;;;;5065126;28;20192;-69
2021/07/10 05:25:13;;;;;;;27.70;17.17;;;16.30;99.90;;;;;;5060232;28;20207;-69
2021/07/10 05:27:41;;;;;;;26.27;16.13;;;16.40;99.90;;;;;;5060562;28;20219;-69
2021/07/10 05:30:14;;;;;;;23.77;15.07;;;16.50;99.90;;;;;;5063342;28;20223;-69
2021/07/10 05:32:44;;;;;;;25.53;16.07;;;16.60;99.90;;;;;;5065037;28;20261;-69
2021/07/10 05:35:16;;;;;;;29.67;18.87;;;16.70;99.90;;;;;;5057438;28;20263;-69
2021/07/10 05:37:44;;;;;;;26.17;16.23;;;16.70;99.90;;;;;;5062901;28;20508;-70
2021/07/10 05:40:13;;;;;;;24.93;16.23;;;16.80;99.90;;;;;;5064258;28;20222;-69
2021/07/10 05:42:41;;;;;;;24.33;15.83;;;16.80;99.90;;;;;;5067011;28;20237;-70
2021/07/10 05:45:12;;;;;;;27.97;16.07;;;17.00;99.90;;;;;;5063515;28;20231;-69
2021/07/10 05:47:41;;;;;;;22.03;16.27;;;17.00;99.90;;;;;;5066359;28;20283;-69
2021/07/10 05:50:10;;;;;;;20.37;14.20;;;17.10;99.90;;;;;;5062478;28;20507;-69
2021/07/10 05:52:39;;;;;;;23.10;15.87;;;17.10;99.90;;;;;;5067967;28;20712;-69
2021/07/10 05:55:09;;;;;;;23.17;14.87;;;17.20;99.90;;;;;;5065278;28;20318;-67
2021/07/10 05:57:37;;;;;;;17.83;13.70;;;17.20;99.90;;;;;;5064264;28;20189;-66
2021/07/10 06:00:08;;;;;;;23.67;16.63;;;17.30;99.90;;;;;;5062505;28;20609;-67
2021/07/10 06:02:39;;;;;;;23.63;16.30;;;17.30;99.90;;;;;;5066935;28;20274;-66
2021/07/10 06:05:10;;;;;;;22.53;15.10;;;17.20;99.90;;;;;;5061134;28;20732;-67
2021/07/10 06:07:38;;;;;;;23.93;15.07;;;17.10;99.90;;;;;;5069827;28;20738;-66
2021/07/10 06:10:09;;;;;;;24.67;16.37;;;17.20;99.90;;;;;;5067093;28;20662;-66
2021/07/10 06:12:38;;;;;;;26.20;17.00;;;17.30;99.90;;;;;;5069030;28;20248;-66
2021/07/10 06:15:09;;;;;;;26.00;17.27;;;17.40;99.90;;;;;;5065274;28;20211;-66
2021/07/10 06:17:39;;;;;;;26.03;16.17;;;17.40;99.90;;;;;;5070418;28;20676;-67
2021/07/10 06:20:10;;;;;;;26.13;16.03;;;17.30;99.90;;;;;;5065702;28;20459;-67
2021/07/10 06:22:38;;;;;;;24.03;16.80;;;17.40;99.90;;;;;;5066818;28;20228;-67
2021/07/10 06:25:11;;;;;;;29.83;17.80;;;17.50;99.90;;;;;;5068554;28;20226;-66
2021/07/10 06:27:39;;;;;;;26.60;17.13;;;17.60;99.90;;;;;;5066675;28;20195;-66
2021/07/10 06:30:10;;;;;;;27.23;16.20;;;17.60;99.90;;;;;;5064158;28;20725;-65
2021/07/10 06:32:40;;;;;;;25.07;15.43;;;17.60;99.90;;;;;;5064622;28;20231;-66
2021/07/10 06:35:10;;;;;;;29.03;17.83;;;17.70;99.90;;;;;;5070963;28;20619;-66
2021/07/10 06:37:39;;;;;;;28.70;17.33;;;17.70;99.90;;;;;;5069570;28;20199;-66
2021/07/10 06:40:10;;;;;;;26.20;16.93;;;17.80;99.90;;;;;;5069604;28;20192;-66
2021/07/10 06:42:40;;;;;;;27.83;17.60;;;17.90;99.90;;;;;;5069756;28;20196;-66
2021/07/10 06:45:11;;;;;;;32.93;19.87;;;18.00;99.90;;;;;;5072303;28;20227;-67
2021/07/10 06:47:42;;;;;;;34.67;18.27;;;18.00;99.90;;;;;;5071100;28;20283;-66
2021/07/10 06:50:12;;;;;;;28.57;18.60;;;18.10;99.90;;;;;;5067560;28;20261;-66
2021/07/10 06:52:41;;;;;;;34.87;20.87;;;18.10;99.90;;;;;;5070299;28;20200;-66
2021/07/10 06:55:15;;;;;;;30.47;19.50;;;18.20;99.90;;;;;;5070721;28;20302;-66
2021/07/10 06:57:43;;;;;;;32.10;18.43;;;18.20;99.90;;;;;;5070963;28;20203;-66
2021/07/10 07:00:14;;;;;;;26.60;18.57;;;18.20;99.90;;;;;;5071895;28;20222;-66
2021/07/10 07:02:44;;;;;;;31.87;18.70;;;18.40;99.90;;;;;;5067893;28;20235;-66
2021/07/10 07:05:13;;;;;;;31.80;19.47;;;18.50;99.90;;;;;;5069192;28;21149;-66
2021/07/10 07:07:41;;;;;;;28.47;18.57;;;18.50;99.90;;;;;;5066879;28;20283;-66
2021/07/10 07:10:13;;;;;;;28.70;19.20;;;18.60;99.90;;;;;;5067168;28;20192;-67
2021/07/10 07:12:44;;;;;;;30.83;18.57;;;18.70;99.90;;;;;;5060459;28;20618;-66
2021/07/10 07:15:13;;;;;;;29.13;18.63;;;18.60;99.90;;;;;;5067638;28;20208;-67
2021/07/10 07:17:44;;;;;;;30.80;19.43;;;18.60;99.90;;;;;;5068539;28;20279;-66
2021/07/10 07:20:15;;;;;;;24.37;16.73;;;18.80;99.90;;;;;;5064861;28;20199;-66
2021/07/10 07:22:47;;;;;;;29.47;17.13;;;18.90;99.90;;;;;;5070868;28;20196;-66
2021/07/10 07:25:19;;;;;;;25.77;17.57;;;19.10;99.90;;;;;;5071470;28;20829;-66
2021/07/10 07:27:49;;;;;;;26.20;17.90;;;19.30;99.90;;;;;;5064741;28;20216;-66
2021/07/10 07:30:18;;;;;;;31.47;19.40;;;19.40;99.90;;;;;;5070300;28;20180;-66
2021/07/10 07:32:51;;;;;;;27.07;18.43;;;19.40;99.90;;;;;;5065258;28;20670;-67
2021/07/10 07:35:21;;;;;;;23.90;16.23;;;19.20;99.90;;;;;;5064738;28;20246;-67
2021/07/10 07:37:50;;;;;;;25.70;17.60;;;19.30;99.90;;;;;;5068561;28;21050;-66
2021/07/10 07:40:18;;;;;;;23.33;16.27;;;19.30;99.90;;;;;;5065316;28;20193;-66
2021/07/10 07:42:48;;;;;;;27.20;18.83;;;19.40;99.90;;;;;;5069797;28;20188;-66
2021/07/10 07:45:18;;;;;;;29.53;18.83;;;19.50;99.90;;;;;;5067970;28;20234;-66
2021/07/10 07:47:49;;;;;;;29.23;18.30;;;19.50;99.90;;;;;;5069965;28;20298;-66
2021/07/10 07:50:19;;;;;;;21.70;15.43;;;19.60;99.90;;;;;;5070509;28;20710;-66
2021/07/10 07:52:48;;;;;;;23.80;15.30;;;20.10;99.90;;;;;;5068451;28;20188;-66
2021/07/10 07:55:17;;;;;;;25.83;15.90;;;20.50;99.90;;;;;;5061350;28;20761;-66
2021/07/10 07:57:45;;;;;;;23.07;15.97;;;20.80;99.90;;;;;;5070212;28;20207;-66
2021/07/10 08:00:16;;;;;;;21.87;15.07;;;21.30;99.90;;;;;;5059663;28;20235;-66
2021/07/10 08:02:44;;;;;;;25.47;15.37;;;21.90;99.90;;;;;;5065894;28;20283;-66
2021/07/10 08:05:17;;;;;;;19.03;13.13;;;22.50;99.90;;;;;;5063575;28;20191;-66
2021/07/10 08:07:45;;;;;;;20.53;15.23;;;22.40;99.90;;;;;;5063486;28;20224;-66
2021/07/10 08:10:16;;;;;;;20.07;15.37;;;22.20;99.90;;;;;;5063783;28;20252;-66
2021/07/10 08:12:49;;;;;;;21.23;14.03;;;22.30;99.90;;;;;;5060715;28;20189;-67
2021/07/10 08:15:19;;;;;;;23.50;16.07;;;22.10;99.90;;;;;;5063801;28;20228;-66
2021/07/10 08:17:49;;;;;;;23.00;14.50;;;22.10;99.90;;;;;;5066740;28;20603;-66
2021/07/10 08:20:21;;;;;;;17.13;12.53;;;22.20;99.90;;;;;;5064349;28;20665;-66
2021/07/10 08:22:50;;;;;;;17.40;12.23;;;22.70;99.90;;;;;;5065903;28;20247;-67
2021/07/10 08:25:19;;;;;;;18.93;13.87;;;23.10;99.90;;;;;;5060146;28;20202;-66
2021/07/10 08:27:48;;;;;;;20.37;12.80;;;23.20;99.90;;;;;;5062751;28;20661;-67
2021/07/10 08:30:20;;;;;;;16.00;11.93;;;23.00;99.90;;;;;;5058344;28;20210;-66
2021/07/10 08:32:49;;;;;;;13.83;11.07;;;23.00;99.90;;;;;;5058939;28;20239;-66
2021/07/10 08:35:20;;;;;;;21.47;12.30;;;23.20;99.90;;;;;;5056801;28;20302;-66
2021/07/10 08:37:49;;;;;;;13.40;10.50;;;23.00;99.90;;;;;;5062276;28;20237;-66
2021/07/10 08:40:18;;;;;;;14.40;11.30;;;22.80;99.90;;;;;;5076479;28;20273;-66
2021/07/10 08:42:46;;;;;;;12.80;10.03;;;23.00;99.90;;;;;;5062318;28;20631;-66
2021/07/10 08:45:15;;;;;;;13.63;10.37;;;24.10;99.90;;;;;;5059031;28;20247;-66
2021/07/10 08:47:45;;;;;;;11.90;10.00;;;25.00;99.90;;;;;;5059810;28;20251;-66
2021/07/10 08:50:17;;;;;;;15.03;10.47;;;25.30;99.90;;;;;;5062863;28;20599;-67
2021/07/10 08:52:52;;;;;;;18.30;11.67;;;25.00;99.90;;;;;;5065684;28;20565;-67
2021/07/10 08:55:21;;;;;;;12.60;10.37;;;24.70;99.90;;;;;;5064789;28;20224;-67
2021/07/10 08:57:50;;;;;;;13.40;9.40;;;24.50;99.90;;;;;;5059559;28;20280;-66
2021/07/10 09:00:23;;;;;;;11.83;9.00;;;24.40;99.90;;;;;;5063924;28;20389;-67
2021/07/10 09:02:53;;;;;;;13.47;9.77;;;24.10;99.90;;;;;;5059561;28;20656;-66
2021/07/10 09:05:22;;;;;;;14.97;10.10;;;23.50;99.90;;;;;;5061708;28;20227;-67
2021/07/10 09:08:23;;;;;;;12.47;10.30;;;23.40;99.90;;;;;;5059783;28;20581;-66
2021/07/10 09:10:56;;;;;;;13.93;10.03;;;23.40;99.90;;;;;;5060719;28;20196;-66
2021/07/10 09:13:32;;;;;;;14.60;9.87;;;23.40;99.90;;;;;;5062332;28;20685;-67
2021/07/10 09:16:08;;;;;;;11.73;9.40;;;23.40;99.90;;;;;;5062428;28;20586;-66
2021/07/10 09:18:38;;;;;;;12.13;8.70;;;23.40;99.90;;;;;;5061466;28;20197;-66
2021/07/10 09:21:07;;;;;;;9.40;8.30;;;23.20;99.90;;;;;;5062077;28;20225;-67
2021/07/10 09:23:39;;;;;;;12.17;8.30;;;23.30;99.90;;;;;;5059671;28;20233;-66
2021/07/10 09:26:17;;;;;;;11.70;7.97;;;23.40;99.90;;;;;;5059734;28;20548;-67
2021/07/10 09:28:58;;;;;;;9.07;7.87;;;23.70;99.90;;;;;;5059733;28;20275;-66
2021/07/10 09:31:28;;;;;;;13.17;9.63;;;24.00;99.90;;;;;;5060689;28;20258;-66
2021/07/10 09:34:00;;;;;;;12.20;8.80;;;24.10;99.90;;;;;;5060421;28;20188;-67
2021/07/10 09:36:28;;;;;;;13.47;8.77;;;24.00;99.90;;;;;;5059948;28;20208;-66
2021/07/10 09:38:58;;;;;;;11.13;8.73;;;24.00;99.90;;;;;;5062327;28;20195;-66
2021/07/10 09:41:29;;;;;;;10.23;7.97;;;24.00;99.90;;;;;;5059130;28;20218;-66
2021/07/10 09:44:10;;;;;;;9.17;7.67;;;23.80;99.90;;;;;;5060201;28;20290;-66
2021/07/10 09:46:39;;;;;;;9.00;7.93;;;23.70;99.90;;;;;;5059061;28;20746;-67
2021/07/10 09:49:35;;;;;;;15.20;7.43;;;23.50;99.90;;;;;;5059570;28;20226;-66
2021/07/10 09:52:07;;;;;;;10.53;8.17;;;23.40;99.90;;;;;;5061178;28;20193;-66
2021/07/10 09:54:39;;;;;;;10.00;7.60;;;23.50;99.90;;;;;;5061689;28;20899;-67
2021/07/10 09:57:13;;;;;;;7.87;7.07;;;23.50;99.90;;;;;;5060701;28;20795;-66
2021/07/10 09:59:45;;;;;;;10.30;7.07;;;23.60;99.90;;;;;;5063651;28;20234;-66
2021/07/10 10:02:26;;;;;;;10.63;7.10;;;23.90;99.90;;;;;;5060204;28;20197;-67
2021/07/10 10:05:03;;;;;;;9.30;7.20;;;24.00;99.90;;;;;;5062307;28;20254;-67
2021/07/10 10:07:43;;;;;;;8.47;6.37;;;23.90;99.90;;;;;;5056799;28;20250;-66
2021/07/10 10:10:21;;;;;;;8.60;6.80;;;23.60;99.90;;;;;;5059245;28;20274;-66
2021/07/10 10:13:11;;;;;;;7.60;6.40;;;23.60;99.90;;;;;;5066627;28;20259;-66
2021/07/10 10:15:41;;;;;;;8.97;6.90;;;23.30;99.90;;;;;;5064734;28;20199;-67
2021/07/10 10:18:12;;;;;;;8.00;6.37;;;23.30;99.90;;;;;;5062630;28;20198;-66
2021/07/10 10:20:41;;;;;;;10.00;6.73;;;23.30;99.90;;;;;;5060162;28;20628;-66
2021/07/10 10:23:11;;;;;;;6.40;5.40;;;23.20;99.90;;;;;;5063571;28;20286;-67
2021/07/10 10:25:42;;;;;;;10.67;6.77;;;23.30;99.90;;;;;;5067122;28;20242;-66
2021/07/10 10:28:18;;;;;;;7.33;5.90;;;23.20;99.90;;;;;;5064174;28;20212;-67
2021/07/10 10:30:47;;;;;;;5.83;5.43;;;23.30;99.90;;;;;;5066052;28;20190;-66
2021/07/10 10:33:16;;;;;;;6.70;6.10;;;23.40;99.90;;;;;;5061798;28;20271;-66
2021/07/10 10:35:46;;;;;;;6.43;5.63;;;23.40;99.90;;;;;;5065963;28;20236;-66
2021/07/10 10:38:15;;;;;;;7.77;6.07;;;23.60;99.90;;;;;;5062839;28;20235;-67
2021/07/10 10:40:45;;;;;;;5.67;5.23;;;23.50;99.90;;;;;;5060384;28;20293;-66
2021/07/10 10:43:16;;;;;;;5.63;5.13;;;23.70;99.90;;;;;;5061354;28;20201;-67
2021/07/10 10:45:45;;;;;;;5.93;5.37;;;24.00;99.90;;;;;;5068492;28;20199;-67
2021/07/10 10:48:17;;;;;;;5.90;5.27;;;24.10;99.90;;;;;;5058808;28;20225;-67
2021/07/10 10:50:46;;;;;;;7.63;4.83;;;24.10;99.90;;;;;;5063197;28;20250;-66
2021/07/10 10:53:22;;;;;;;7.60;4.80;;;23.90;99.90;;;;;;5064790;28;20260;-66
2021/07/10 10:55:52;;;;;;;6.10;4.77;;;24.20;99.90;;;;;;5063281;28;20222;-66
2021/07/10 10:58:22;;;;;;;4.50;4.20;;;24.60;99.90;;;;;;5069516;28;20230;-66
2021/07/10 11:00:58;;;;;;;4.40;4.00;;;25.10;99.90;;;;;;5071353;28;20254;-67
2021/07/10 11:03:36;;;;;;;4.00;3.70;;;25.50;99.90;;;;;;5064335;28;20200;-66
2021/07/10 11:06:05;;;;;;;4.23;4.00;;;25.50;99.90;;;;;;5065029;28;20702;-67
2021/07/10 11:08:52;;;;;;;3.00;2.80;;;25.20;99.90;;;;;;5064848;28;20239;-67
2021/07/10 11:11:34;;;;;;;5.03;3.80;;;25.20;99.90;;;;;;5064739;28;20181;-67
2021/07/10 11:14:12;;;;;;;3.73;3.43;;;25.20;99.90;;;;;;5064483;28;20286;-66
2021/07/10 11:17:10;;;;;;;3.50;3.30;;;24.90;99.90;;;;;;5065012;28;20590;-66
2021/07/10 11:19:44;;;;;;;4.47;4.17;;;24.40;99.90;;;;;;5043698;28;20195;-66
2021/07/10 11:22:12;;;;;;;5.20;4.10;;;23.90;99.90;;;;;;5078028;28;20178;-66
2021/07/10 11:24:48;;;;;;;6.53;3.93;;;23.80;99.90;;;;;;5077473;28;20428;-66
2021/07/10 11:27:24;;;;;;;4.10;3.83;;;23.80;99.90;;;;;;5090545;28;20273;-66
2021/07/10 11:30:17;;;;;;;3.90;3.70;;;23.80;99.90;;;;;;5080434;28;20287;-67
2021/07/10 11:32:46;;;;;;;4.50;4.20;;;23.70;99.90;;;;;;5078135;28;20221;-66
2021/07/10 11:35:39;;;;;;;5.87;4.27;;;23.60;99.90;;;;;;5076059;28;20217;-66
2021/07/10 11:38:07;;;;;;;4.47;4.07;;;23.40;99.90;;;;;;5077732;28;20216;-66
2021/07/10 11:40:41;;;;;;;4.67;4.37;;;23.50;99.90;;;;;;5077156;28;20459;-67
2021/07/10 11:43:12;;;;;;;4.83;4.43;;;23.60;99.90;;;;;;5077505;28;20184;-66
2021/07/10 11:45:50;;;;;;;5.50;4.73;;;23.90;99.90;;;;;;5075778;28;20208;-66
2021/07/10 11:48:39;;;;;;;7.17;4.20;;;23.80;99.90;;;;;;5076501;28;20494;-67
2021/07/10 11:51:10;;;;;;;4.60;4.10;;;24.20;99.90;;;;;;5080019;28;20179;-66
2021/07/10 11:53:38;;;;;;;3.87;3.57;;;24.40;99.90;;;;;;5080582;28;20186;-66
2021/07/10 11:56:07;;;;;;;4.77;3.93;;;24.50;99.90;;;;;;5081374;28;20209;-66
2021/07/10 11:58:40;;;;;;;4.07;3.77;;;24.30;99.90;;;;;;5081423;28;20467;-66
2021/07/10 12:01:09;;;;;;;4.60;4.20;;;24.10;99.90;;;;;;5082783;28;20188;-66
2021/07/10 12:03:38;;;;;;;4.30;4.00;;;23.90;99.90;;;;;;5079231;28;20176;-66
2021/07/10 12:06:06;;;;;;;4.67;4.03;;;23.80;99.90;;;;;;5081377;28;20196;-66
2021/07/10 12:08:34;;;;;;;6.60;4.40;;;23.60;99.90;;;;;;5080139;28;20351;-66
2021/07/10 12:11:03;;;;;;;4.40;4.00;;;23.50;99.90;;;;;;5082023;28;20185;-66
2021/07/10 12:13:34;;;;;;;4.43;4.03;;;23.50;99.90;;;;;;5076829;28;20179;-66
2021/07/10 12:16:06;;;;;;;4.43;4.03;;;23.40;99.90;;;;;;5074923;28;20183;-66
2021/07/10 12:18:36;;;;;;;4.27;3.87;;;23.50;99.90;;;;;;5076840;28;20280;-66
2021/07/10 12:21:08;;;;;;;7.40;4.10;;;23.60;99.90;;;;;;5071599;28;20206;-66
2021/07/10 12:23:38;;;;;;;4.73;4.10;;;23.60;99.90;;;;;;5075644;28;20329;-66
2021/07/10 12:26:11;;;;;;;5.33;3.73;;;23.60;99.90;;;;;;5076233;28;20178;-66
2021/07/10 12:28:42;;;;;;;4.33;3.93;;;23.50;99.90;;;;;;5078966;28;20264;-67
2021/07/10 12:31:18;;;;;;;4.23;3.93;;;23.40;99.90;;;;;;5077286;28;20433;-66
2021/07/10 12:33:51;;;;;;;5.67;4.00;;;23.20;99.90;;;;;;5078079;28;20194;-66
2021/07/10 12:36:23;;;;;;;4.93;4.30;;;23.20;99.90;;;;;;5081305;28;20179;-66
2021/07/10 12:39:08;;;;;;;4.40;4.10;;;23.20;99.90;;;;;;5078227;28;20193;-67
2021/07/10 12:41:41;;;;;;;4.43;4.07;;;23.20;99.90;;;;;;5080466;28;20194;-66
2021/07/10 12:44:13;;;;;;;5.77;4.67;;;23.10;99.90;;;;;;5078383;28;20193;-66
2021/07/10 12:47:04;;;;;;;4.53;4.20;;;22.80;99.90;;;;;;5082615;28;20181;-67
2021/07/10 12:49:37;;;;;;;7.20;4.47;;;22.70;99.90;;;;;;5079970;28;20193;-66
2021/07/10 12:52:07;;;;;;;5.23;4.70;;;22.30;99.90;;;;;;5079935;28;20192;-66